Green Ice — C6SO4 — position and weather

sailwx.info

Track history (hours):
 
Tides and Currents Weather Stations Pressure Air Temp Water Temp Dewpoint Dewpoint Depression Visibility Wind Speed Wind Dir Waves Ship Positions

Green Ice

Last reported at 2015-Jul-05 12:33 UTC. Time now 2015-Jul-05 12:56 UTC.
Position N 67°24' E 014°26'.

Length 86 m; draft 5.6 m.

MMSI: 311411000.

Date/timePositionNaut miles runAvg speedWind from/ knotsBaromVisibWave heightAir tempDewpointWater temp
2015-Jul-05 12:33N 67°24' E 014°26'6 6.3
2015-Jul-05 11:32N 67°17' E 014°24'0 0.0
2015-Jul-05 10:32N 67°17' E 014°24'0 0.0
2015-Jul-05 09:32N 67°17' E 014°24'0 0.0
2015-Jul-05 08:32N 67°17' E 014°24'0 0.0
2015-Jul-05 07:32N 67°17' E 014°24'0 0.0
2015-Jul-05 06:32N 67°17' E 014°24'1 1.5
2015-Jul-05 05:33N 67°17' E 014°20'1212.0
2015-Jul-05 04:33N 67°08' E 014°01'1313.0
2015-Jul-05 03:33N 66°58' E 013°38'1211.3
2015-Jul-05 02:30N 66°50' E 013°16'1812.6
2015-Jul-05 01:05N 66°33' E 013°01'711.6
2015-Jul-05 00:29N 66°26' E 012°59'74 7.4
2015-Jul-04 14:30N 65°17' E 011°58'1313.6
2015-Jul-04 13:33N 65°05' E 011°46'1212.5
2015-Jul-04 12:34N 64°56' E 011°25'6 6.1
2015-Jul-04 11:32N 64°52' E 011°14'0 0.0
2015-Jul-04 10:33N 64°52' E 011°14'0 0.0
2015-Jul-04 09:33N 64°52' E 011°14'0 0.1
2015-Jul-04 08:33N 64°51' E 011°14'6012.0
2015-Jul-04 03:33N 64°04' E 009°51'1212.4
2015-Jul-04 02:33N 63°52' E 009°41'1313.0
2015-Jul-04 01:34N 63°40' E 009°29'10 9.6
2015-Jul-04 00:33N 63°36' E 009°49'1111.4
2015-Jul-03 23:33N 63°28' E 010°07'8 8.1
2015-Jul-03 22:33N 63°27' E 010°25'0 0.0
2015-Jul-03 21:33N 63°27' E 010°25'0 0.0
2015-Jul-03 20:33N 63°27' E 010°25'0 0.0
2015-Jul-03 19:33N 63°27' E 010°25'0 0.0
2015-Jul-03 18:33N 63°27' E 010°25'0 0.0
2015-Jul-03 17:33N 63°27' E 010°25'0 0.0
2015-Jul-03 16:33N 63°27' E 010°25'0 0.0
2015-Jul-03 15:33N 63°27' E 010°25'0 0.0
2015-Jul-03 14:33N 63°27' E 010°25'0 0.1
2015-Jul-03 13:33N 63°27' E 010°25'9 8.6
2015-Jul-03 12:33N 63°28' E 010°06'1211.5
2015-Jul-03 11:33N 63°36' E 009°48'10 9.7
2015-Jul-03 10:32N 63°35' E 009°25'283 5.5
2015-Jul-01 07:26N 59°18' E 005°20'1112.3
2015-Jul-01 06:34N 59°07' E 005°27'1211.8
2015-Jul-01 05:34N 59°02' E 005°47'10 9.5
2015-Jul-01 04:33N 58°52' E 005°45'0 0.0
2015-Jul-01 03:32N 58°52' E 005°45'0 0.0
2015-Jul-01 02:32N 58°52' E 005°45'0 0.0
2015-Jul-01 01:32N 58°52' E 005°45'0 0.0
2015-Jul-01 00:32N 58°52' E 005°45'0 0.0
2015-Jun-30 23:32N 58°52' E 005°45'0 0.0
2015-Jun-30 22:32N 58°52' E 005°45'0 0.0
2015-Jun-30 21:32N 58°52' E 005°45'8 7.8
2015-Jun-30 20:33N 58°60' E 005°48'8 7.7
2015-Jun-30 19:33N 58°59' E 005°33'1312.9
2015-Jun-30 18:32N 58°46' E 005°25'1414.1
2015-Jun-30 17:33N 58°34' E 005°35'1313.3
2015-Jun-30 16:33N 58°24' E 005°52'82 6.9
2015-Jun-30 04:33N 58°09' E 008°26'1413.6
2015-Jun-30 03:33N 58°17' E 008°47'4713.5
2015-Jun-30 00:04N 58°45' E 009°60'713.9
2015-Jun-29 23:33N 58°49' E 010°11'1313.2
2015-Jun-29 22:33N 58°57' E 010°32'1212.0
2015-Jun-29 21:33N 59°01' E 010°54'9 9.5
2015-Jun-29 20:33N 59°10' E 010°57'1 0.9
2015-Jun-29 19:31N 59°11' E 010°57'0 0.0
2015-Jun-29 18:31N 59°11' E 010°57'0 0.0
2015-Jun-29 17:31N 59°11' E 010°57'0 0.0
2015-Jun-29 16:31N 59°11' E 010°57'0 0.1
2015-Jun-29 15:31N 59°11' E 010°57'0 0.0
2015-Jun-29 14:31N 59°11' E 010°57'0 0.0
2015-Jun-29 13:31N 59°11' E 010°57'0 0.0
2015-Jun-29 12:28N 59°11' E 010°57'0 0.0
2015-Jun-29 11:31N 59°11' E 010°57'0 0.0
2015-Jun-29 10:31N 59°11' E 010°57'0 0.0
2015-Jun-29 09:31N 59°11' E 010°57'0 0.0
2015-Jun-29 08:33N 59°11' E 010°57'7 7.4
2015-Jun-29 07:33N 59°04' E 010°58'9 9.4
2015-Jun-29 06:33N 58°59' E 010°43'5713.1
2015-Jun-29 02:12N 58°02' E 010°43'812.8
2015-Jun-29 01:32N 57°53' E 010°44'14 3.5
2015-Jun-28 21:33N 57°40' E 010°38'1312.9
2015-Jun-28 20:33N 57°27' E 010°44'1313.4
2015-Jun-28 19:33N 57°14' E 010°44'1212.4
2015-Jun-28 18:33N 57°02' E 010°51'7212.0
2015-Jun-28 12:32N 55°58' E 011°50'11 1.6
2015-Jun-28 05:33N 56°06' E 012°04'1211.8
2015-Jun-28 04:33N 56°11' E 012°23'1313.4
2015-Jun-28 03:33N 56°02' E 012°40'1312.7
2015-Jun-28 02:33N 55°50' E 012°43'1212.0
2015-Jun-28 01:33N 55°38' E 012°42'10 9.7
2015-Jun-28 00:33N 55°28' E 012°42'1110.5
2015-Jun-27 23:33N 55°17' E 012°45'1211.9
2015-Jun-27 22:33N 55°11' E 013°02'10 0.2
2015-Jun-26 03:19N 55°08' E 012°45'1012.5
2015-Jun-26 02:33N 55°17' E 012°38'1312.6
2015-Jun-26 01:33N 55°29' E 012°41'1212.1
2015-Jun-26 00:33N 55°41' E 012°41'1212.1
2015-Jun-25 23:33N 55°53' E 012°40'1211.6
2015-Jun-25 22:33N 56°05' E 012°36'1313.1
2015-Jun-25 21:33N 56°12' E 012°17'3712.3
2015-Jun-25 18:33N 56°46' E 011°51'1312.7
2015-Jun-25 17:33N 56°58' E 011°42'2512.7
2015-Jun-25 15:33N 57°22' E 011°26'1212.2
2015-Jun-25 14:33N 57°32' E 011°14'1312.9
2015-Jun-25 13:33N 57°41' E 010°56'  
Track history (hours):
 
Tides and Currents Weather Stations Pressure Air Temp Water Temp Dewpoint Dewpoint Depression Visibility Wind Speed Wind Dir Waves Ship Positions

Green Ice

Last reported at 2015-Jul-05 12:33 UTC. Time now 2015-Jul-05 12:56 UTC.
Position N 67°24' E 014°26'.

Length 86 m; draft 5.6 m.

MMSI: 311411000.

Date/timePositionNaut miles runAvg speedWind from/ knotsBaromVisibWave heightAir tempDewpointWater temp
2015-Jul-05 12:33N 67°24' E 014°26'6 6.3
2015-Jul-05 11:32N 67°17' E 014°24'0 0.0
2015-Jul-05 10:32N 67°17' E 014°24'0 0.0
2015-Jul-05 09:32N 67°17' E 014°24'0 0.0
2015-Jul-05 08:32N 67°17' E 014°24'0 0.0
2015-Jul-05 07:32N 67°17' E 014°24'0 0.0
2015-Jul-05 06:32N 67°17' E 014°24'1 1.5
2015-Jul-05 05:33N 67°17' E 014°20'1212.0
2015-Jul-05 04:33N 67°08' E 014°01'1313.0
2015-Jul-05 03:33N 66°58' E 013°38'1211.3
2015-Jul-05 02:30N 66°50' E 013°16'1812.6
2015-Jul-05 01:05N 66°33' E 013°01'711.6
2015-Jul-05 00:29N 66°26' E 012°59'74 7.4
2015-Jul-04 14:30N 65°17' E 011°58'1313.6
2015-Jul-04 13:33N 65°05' E 011°46'1212.5
2015-Jul-04 12:34N 64°56' E 011°25'6 6.1
2015-Jul-04 11:32N 64°52' E 011°14'0 0.0
2015-Jul-04 10:33N 64°52' E 011°14'0 0.0
2015-Jul-04 09:33N 64°52' E 011°14'0 0.1
2015-Jul-04 08:33N 64°51' E 011°14'6012.0
2015-Jul-04 03:33N 64°04' E 009°51'1212.4
2015-Jul-04 02:33N 63°52' E 009°41'1313.0
2015-Jul-04 01:34N 63°40' E 009°29'10 9.6
2015-Jul-04 00:33N 63°36' E 009°49'1111.4
2015-Jul-03 23:33N 63°28' E 010°07'8 8.1
2015-Jul-03 22:33N 63°27' E 010°25'0 0.0
2015-Jul-03 21:33N 63°27' E 010°25'0 0.0
2015-Jul-03 20:33N 63°27' E 010°25'0 0.0
2015-Jul-03 19:33N 63°27' E 010°25'0 0.0
2015-Jul-03 18:33N 63°27' E 010°25'0 0.0
2015-Jul-03 17:33N 63°27' E 010°25'0 0.0
2015-Jul-03 16:33N 63°27' E 010°25'0 0.0
2015-Jul-03 15:33N 63°27' E 010°25'0 0.0
2015-Jul-03 14:33N 63°27' E 010°25'0 0.1
2015-Jul-03 13:33N 63°27' E 010°25'9 8.6
2015-Jul-03 12:33N 63°28' E 010°06'1211.5
2015-Jul-03 11:33N 63°36' E 009°48'10 9.7
2015-Jul-03 10:32N 63°35' E 009°25'283 5.5
2015-Jul-01 07:26N 59°18' E 005°20'1112.3
2015-Jul-01 06:34N 59°07' E 005°27'1211.8
2015-Jul-01 05:34N 59°02' E 005°47'10 9.5
2015-Jul-01 04:33N 58°52' E 005°45'0 0.0
2015-Jul-01 03:32N 58°52' E 005°45'0 0.0
2015-Jul-01 02:32N 58°52' E 005°45'0 0.0
2015-Jul-01 01:32N 58°52' E 005°45'0 0.0
2015-Jul-01 00:32N 58°52' E 005°45'0 0.0
2015-Jun-30 23:32N 58°52' E 005°45'0 0.0
2015-Jun-30 22:32N 58°52' E 005°45'0 0.0
2015-Jun-30 21:32N 58°52' E 005°45'8 7.8
2015-Jun-30 20:33N 58°60' E 005°48'8 7.7
2015-Jun-30 19:33N 58°59' E 005°33'1312.9
2015-Jun-30 18:32N 58°46' E 005°25'1414.1
2015-Jun-30 17:33N 58°34' E 005°35'1313.3
2015-Jun-30 16:33N 58°24' E 005°52'82 6.9
2015-Jun-30 04:33N 58°09' E 008°26'1413.6
2015-Jun-30 03:33N 58°17' E 008°47'4713.5
2015-Jun-30 00:04N 58°45' E 009°60'713.9
2015-Jun-29 23:33N 58°49' E 010°11'1313.2
2015-Jun-29 22:33N 58°57' E 010°32'1212.0
2015-Jun-29 21:33N 59°01' E 010°54'9 9.5
2015-Jun-29 20:33N 59°10' E 010°57'1 0.9
2015-Jun-29 19:31N 59°11' E 010°57'0 0.0
2015-Jun-29 18:31N 59°11' E 010°57'0 0.0
2015-Jun-29 17:31N 59°11' E 010°57'0 0.0
2015-Jun-29 16:31N 59°11' E 010°57'0 0.1
2015-Jun-29 15:31N 59°11' E 010°57'0 0.0
2015-Jun-29 14:31N 59°11' E 010°57'0 0.0
2015-Jun-29 13:31N 59°11' E 010°57'0 0.0
2015-Jun-29 12:28N 59°11' E 010°57'0 0.0
2015-Jun-29 11:31N 59°11' E 010°57'0 0.0
2015-Jun-29 10:31N 59°11' E 010°57'0 0.0
2015-Jun-29 09:31N 59°11' E 010°57'0 0.0
2015-Jun-29 08:33N 59°11' E 010°57'7 7.4
2015-Jun-29 07:33N 59°04' E 010°58'9 9.4
2015-Jun-29 06:33N 58°59' E 010°43'5713.1
2015-Jun-29 02:12N 58°02' E 010°43'812.8
2015-Jun-29 01:32N 57°53' E 010°44'14 3.5
2015-Jun-28 21:33N 57°40' E 010°38'1312.9
2015-Jun-28 20:33N 57°27' E 010°44'1313.4
2015-Jun-28 19:33N 57°14' E 010°44'1212.4
2015-Jun-28 18:33N 57°02' E 010°51'7212.0
2015-Jun-28 12:32N 55°58' E 011°50'11 1.6
2015-Jun-28 05:33N 56°06' E 012°04'1211.8
2015-Jun-28 04:33N 56°11' E 012°23'1313.4
2015-Jun-28 03:33N 56°02' E 012°40'1312.7
2015-Jun-28 02:33N 55°50' E 012°43'1212.0
2015-Jun-28 01:33N 55°38' E 012°42'10 9.7
2015-Jun-28 00:33N 55°28' E 012°42'1110.5
2015-Jun-27 23:33N 55°17' E 012°45'1211.9
2015-Jun-27 22:33N 55°11' E 013°02'10 0.2
2015-Jun-26 03:19N 55°08' E 012°45'1012.5
2015-Jun-26 02:33N 55°17' E 012°38'1312.6
2015-Jun-26 01:33N 55°29' E 012°41'1212.1
2015-Jun-26 00:33N 55°41' E 012°41'1212.1
2015-Jun-25 23:33N 55°53' E 012°40'1211.6
2015-Jun-25 22:33N 56°05' E 012°36'1313.1
2015-Jun-25 21:33N 56°12' E 012°17'3712.3
2015-Jun-25 18:33N 56°46' E 011°51'1312.7
2015-Jun-25 17:33N 56°58' E 011°42'2512.7
2015-Jun-25 15:33N 57°22' E 011°26'1212.2
2015-Jun-25 14:33N 57°32' E 011°14'1312.9
2015-Jun-25 13:33N 57°41' E 010°56'  

Dump ship's entire track history